Meteo Giornale » Osservazioni meteo Stati Uniti (USA) » Georgetown Sussex
ore: 14:54 - Osservazioni Meteo Georgetown Sussex
Lat. 38° 41' N Lon. 75° 21' W Alt. 15 metri s.l.m.
32 °C
Poco Nuvoloso
Temp. 24 Ore
22 °C
32 °C
Ovest
9.3 Km/h
Dew point 22 °C
Umidità 55 %
Visibilità 10 Km
Il sole sorge alle ore 06:30
Il sole tramonta alle ore 19:31
| Data e Ora | Cielo e Fenomeni | T °C | DP °C | Um. % | Pres. hPa | Vis. km | Vento km/h | |
|---|---|---|---|---|---|---|---|---|
| Oggi h: 14:54 | Poco Nuvoloso | 32 | 22 | 55 | 1015 | 10 | O 9.3 | |
| Oggi h: 13:54 | Poco Nuvoloso | 32 | 22 | 55 | 1015 | 10 | N 7.4 | |
| Oggi h: 12:54 | Sereno | 32 | 23 | 59 | 1015 | 10 | O/SO 20.3 | |
| Oggi h: 11:54 | Sereno | 31 | 22 | 58 | 1016 | 10 | O/SO 9.3 | |
| Oggi h: 10:54 | Sereno | 31 | 22 | 58 | 1016 | 10 | SO 13 | |
| Oggi h: 09:54 | Sereno | 29 | 23 | 70 | 1017 | 10 | N 0 | |
| Oggi h: 08:54 | Sereno | 27 | 23 | 78 | 1017 | 10 | O/SO 7.4 | |
| Oggi h: 07:54 | Foschia | 24 | 23 | 94 | 1017 | 8 | SO 7.4 | |
| Oggi h: 07:35 | Foschia | 23 | 23 | 100 | 1017 | 6 | N 5.5 | |
| Oggi h: 07:20 | Foschia | 23 | 23 | 100 | 1017 | 5 | N 5.5 | |
| Oggi h: 07:16 | Foschia | 23 | 23 | 100 | 1017 | 2 | N 0 | |
| Oggi h: 06:54 | Nebbia | 23 | 22 | 94 | 1017 | 2 | N 0 | |
| Oggi h: 06:42 | Nebbia | 22 | 22 | 100 | 1016 | 2 | S/SO 7.4 | |
| Oggi h: 06:09 | Foschia | 22 | 22 | 100 | 1017 | 5 | N 5.5 | |
| Oggi h: 06:05 | Foschia | 22 | 22 | 100 | 1017 | 2 | N 5.5 | |
| Oggi h: 05:54 | Foschia | 22 | 22 | 100 | 1017 | 6 | N 5.5 | |
| Oggi h: 05:45 | Foschia | 22 | 22 | 100 | 1017 | 8 | S/SO 7.4 | |
| Oggi h: 04:54 | Foschia | 22 | 21 | 94 | 1017 | 10 | N 0 | |
| Oggi h: 03:54 | Foschia | 23 | 22 | 94 | 1017 | 10 | N 0 | |
| Oggi h: 02:54 | Foschia | 23 | 22 | 94 | 1017 | 10 | N 5.5 | |
| Oggi h: 01:54 | Sereno | 23 | 22 | 94 | 1017 | 13 | N 0 | |
| Oggi h: 00:54 | Coperto | 23 | 22 | 94 | 1018 | 10 | N 5.5 | |
| Ieri h: 23:54 | Nuvoloso | 23 | 22 | 94 | 1018 | 10 | N 0 | |
| Ieri h: 22:54 | Sereno | 23 | 22 | 94 | 1018 | 10 | S 7.4 | |
| Ieri h: 21:54 | Sereno | 23 | 22 | 94 | 1018 | 10 | N 0 | |
| Ieri h: 20:54 | Sereno | 24 | 23 | 94 | 1018 | 10 | N 5.5 | |
| Ieri h: 19:54 | Nuvoloso | 24 | 22 | 88 | 1018 | 10 | N 0 | |
| Ieri h: 18:54 | Molto Nuvoloso | 25 | 22 | 83 | 1018 | 10 | E/SE 9.3 | |
| Ieri h: 18:30 | Molto Nuvoloso | 26 | 22 | 78 | 1019 | 10 | SE 9.3 | |
| Ieri h: 18:18 | Nuvoloso | 26 | 22 | 78 | 1019 | 10 | E/SE 11.1 | |
| Ieri h: 17:54 | Coperto | 26 | 22 | 78 | 1019 | 10 | E/SE 13 | |
| Ieri h: 17:42 | Molto Nuvoloso | 26 | 22 | 78 | 1019 | 10 | SE 11.1 | |
| Ieri h: 17:16 | Molto Nuvoloso | 26 | 23 | 83 | 1019 | 10 | SE 16.7 | |
| Ieri h: 16:54 | Coperto | 27 | 23 | 78 | 1019 | 10 | SE 18.5 | |
| Ieri h: 15:54 | Coperto | 28 | 23 | 74 | 1018 | 10 | NE 20.3 | |



